createdAt,value
2022-09-04T00:02:22.187Z,17.24
2022-09-04T00:04:56.401Z,17.21
2022-09-04T00:07:28.413Z,17.19
2022-09-04T00:10:06.581Z,17.16
2022-09-04T00:12:43.335Z,17.13
2022-09-04T00:15:16.991Z,17.12
2022-09-04T00:17:50.978Z,17.08
2022-09-04T00:20:28.848Z,17.06
2022-09-04T00:23:02.502Z,17.04
2022-09-04T00:25:38.538Z,17.03
2022-09-04T00:28:17.131Z,17.00
2022-09-04T00:30:49.052Z,16.97
2022-09-04T00:33:23.912Z,16.95
2022-09-04T00:35:56.513Z,16.94
2022-09-04T00:38:35.535Z,16.92
2022-09-04T00:41:11.288Z,16.89
2022-09-04T00:44:13.337Z,16.86
2022-09-04T00:47:05.997Z,16.84
2022-09-04T00:49:46.573Z,16.83
2022-09-04T00:52:36.492Z,16.81
2022-09-04T00:55:15.750Z,16.80
2022-09-04T00:58:03.569Z,16.77
2022-09-04T01:00:33.393Z,16.74
2022-09-04T01:03:23.583Z,16.72
2022-09-04T01:06:12.359Z,16.68
2022-09-04T01:08:56.142Z,16.65
2022-09-04T01:11:33.012Z,16.62
2022-09-04T01:14:09.050Z,16.62
2022-09-04T01:16:43.772Z,16.60
2022-09-04T01:19:28.181Z,16.59
2022-09-04T01:22:12.069Z,16.57
2022-09-04T01:25:13.179Z,16.53
2022-09-04T01:27:49.357Z,16.50
2022-09-04T01:30:18.497Z,16.47
2022-09-04T01:32:57.003Z,16.45
2022-09-04T01:35:33.202Z,16.43
2022-09-04T01:38:08.126Z,16.41
2022-09-04T01:40:41.007Z,16.39
2022-09-04T01:43:12.215Z,16.38
2022-09-04T01:45:54.500Z,16.35
2022-09-04T01:48:29.986Z,16.33
2022-09-04T01:51:01.092Z,16.31
2022-09-04T01:53:33.031Z,16.27
2022-09-04T01:56:09.658Z,16.25
2022-09-04T01:58:47.102Z,16.24
2022-09-04T02:01:21.162Z,16.22
2022-09-04T02:03:56.618Z,16.20
2022-09-04T02:06:31.929Z,16.18
2022-09-04T02:09:11.667Z,16.16
2022-09-04T02:11:40.560Z,16.14
2022-09-04T02:14:20.965Z,16.12
2022-09-04T02:17:04.885Z,16.08
2022-09-04T02:19:41.761Z,16.05
2022-09-04T02:22:23.145Z,16.04
2022-09-04T02:25:00.566Z,16.03
2022-09-04T02:27:31.942Z,15.99
2022-09-04T02:30:04.057Z,15.98
2022-09-04T02:32:36.575Z,15.96
2022-09-04T02:35:11.543Z,15.93
2022-09-04T02:37:48.565Z,15.90
2022-09-04T02:40:24.225Z,15.89
2022-09-04T02:43:12.976Z,15.86
2022-09-04T02:45:47.741Z,15.82
2022-09-04T02:48:22.552Z,15.80
2022-09-04T02:51:05.705Z,15.77
2022-09-04T02:53:41.571Z,15.75
2022-09-04T02:56:22.361Z,15.73
2022-09-04T02:59:01.822Z,15.70
2022-09-04T03:01:37.047Z,15.69
2022-09-04T03:04:11.007Z,15.65
2022-09-04T03:06:47.113Z,15.63
2022-09-04T03:09:19.056Z,15.60
2022-09-04T03:11:52.128Z,15.57
2022-09-04T03:14:27.947Z,15.55
2022-09-04T03:17:01.539Z,15.52
2022-09-04T03:19:35.110Z,15.49
2022-09-04T03:22:07.066Z,15.44
2022-09-04T03:24:42.451Z,15.42
2022-09-04T03:27:13.679Z,15.38
2022-09-04T03:29:49.760Z,15.35
2022-09-04T03:32:24.492Z,15.32
2022-09-04T03:34:58.852Z,15.31
2022-09-04T03:37:46.629Z,15.29
2022-09-04T03:40:22.189Z,15.26
2022-09-04T03:43:03.006Z,15.24
2022-09-04T03:45:39.365Z,15.22
2022-09-04T03:48:23.852Z,15.18
2022-09-04T03:50:56.934Z,15.15
2022-09-04T03:53:33.837Z,15.11
2022-09-04T03:56:20.418Z,15.08
2022-09-04T03:58:59.960Z,15.06
2022-09-04T04:01:36.963Z,15.03
2022-09-04T04:04:31.121Z,15.00
2022-09-04T04:07:09.924Z,14.96
2022-09-04T04:09:49.933Z,14.93
2022-09-04T04:12:33.139Z,14.90
2022-09-04T04:15:13.704Z,14.89
2022-09-04T04:17:56.888Z,14.87
2022-09-04T04:20:36.183Z,14.85
2022-09-04T04:23:24.808Z,14.85
2022-09-04T04:26:03.256Z,14.83
2022-09-04T04:28:48.957Z,14.82
2022-09-04T04:31:22.825Z,14.82
2022-09-04T04:33:59.447Z,14.81
2022-09-04T04:36:37.595Z,14.80
2022-09-04T04:39:15.132Z,14.80
2022-09-04T04:41:52.080Z,14.78
2022-09-04T04:44:25.103Z,14.78
2022-09-04T04:47:06.852Z,14.79
2022-09-04T04:49:51.128Z,14.80
2022-09-04T04:52:32.439Z,14.79
2022-09-04T04:55:11.211Z,14.78
2022-09-04T04:57:52.467Z,14.78
2022-09-04T05:00:27.479Z,14.76
2022-09-04T05:03:04.336Z,14.79
2022-09-04T05:05:57.657Z,14.82
2022-09-04T05:08:39.109Z,14.86
2022-09-04T05:11:13.590Z,14.89
2022-09-04T05:13:51.655Z,14.91
2022-09-04T05:16:26.146Z,14.95
2022-09-04T05:18:58.538Z,14.98
2022-09-04T05:21:35.321Z,15.03
2022-09-04T05:24:13.430Z,15.08
2022-09-04T05:26:47.265Z,15.14
2022-09-04T05:29:19.473Z,15.19
2022-09-04T05:31:54.601Z,15.24
2022-09-04T05:34:29.366Z,15.31
2022-09-04T05:37:07.878Z,15.39
2022-09-04T05:39:49.686Z,15.47
2022-09-04T05:42:41.572Z,15.53
2022-09-04T05:45:18.115Z,15.58
2022-09-04T05:47:58.598Z,15.66
2022-09-04T05:50:55.181Z,15.79
2022-09-04T05:53:51.442Z,15.93
2022-09-04T05:56:39.058Z,16.04
2022-09-04T05:59:24.430Z,16.11
2022-09-04T06:02:06.327Z,16.14
2022-09-04T06:04:52.996Z,16.16
2022-09-04T06:07:26.535Z,16.17
2022-09-04T06:09:58.815Z,16.22
2022-09-04T06:12:50.577Z,16.29
2022-09-04T06:15:36.751Z,16.34
2022-09-04T06:18:14.262Z,16.37
2022-09-04T06:21:07.130Z,16.42
2022-09-04T06:24:03.159Z,16.51
2022-09-04T06:26:51.482Z,16.62
2022-09-04T06:29:35.219Z,16.70
2022-09-04T06:32:17.236Z,16.77
2022-09-04T06:35:03.952Z,16.86
2022-09-04T06:37:41.810Z,16.91
2022-09-04T06:40:22.663Z,16.99
2022-09-04T06:43:01.401Z,17.03
2022-09-04T06:45:44.558Z,17.08
2022-09-04T06:48:22.594Z,17.18
2022-09-04T06:51:00.180Z,17.27
2022-09-04T06:53:39.004Z,17.39
2022-09-04T06:56:20.529Z,17.49
2022-09-04T06:59:09.490Z,17.58
2022-09-04T07:01:51.291Z,17.67
2022-09-04T07:04:30.909Z,17.72
2022-09-04T07:07:07.319Z,17.74
2022-09-04T07:09:41.912Z,17.84
2022-09-04T07:12:24.791Z,17.94
2022-09-04T07:15:16.241Z,18.06
2022-09-04T07:17:53.817Z,18.11
2022-09-04T07:20:31.543Z,18.14
2022-09-04T07:23:16.646Z,18.16
2022-09-04T07:25:49.101Z,18.16
2022-09-04T07:28:54.651Z,18.20
2022-09-04T07:31:25.564Z,18.23
2022-09-04T07:34:00.980Z,18.26
2022-09-04T07:36:35.059Z,18.32
2022-09-04T07:39:10.985Z,18.37
2022-09-04T07:41:46.392Z,18.46
2022-09-04T07:44:20.213Z,18.53
2022-09-04T07:46:55.269Z,18.58
2022-09-04T07:49:33.243Z,18.61
2022-09-04T07:52:11.380Z,18.63
2022-09-04T07:55:03.042Z,18.71
2022-09-04T07:57:49.111Z,18.78
2022-09-04T08:00:17.317Z,18.79
2022-09-04T08:03:03.400Z,18.82
2022-09-04T08:05:34.045Z,18.86
2022-09-04T08:08:19.223Z,18.91
2022-09-04T08:11:02.469Z,18.98
2022-09-04T08:13:43.848Z,19.04
2022-09-04T08:16:22.128Z,19.11
2022-09-04T08:19:14.816Z,19.17
2022-09-04T08:21:46.987Z,19.21
2022-09-04T08:24:45.230Z,19.28
2022-09-04T08:27:27.627Z,19.36
2022-09-04T08:30:03.803Z,19.43
2022-09-04T08:33:00.137Z,19.47
2022-09-04T08:35:31.980Z,19.51
2022-09-04T08:38:26.688Z,19.56
2022-09-04T08:41:41.148Z,19.64
2022-09-04T08:44:40.775Z,19.74
2022-09-04T08:47:41.045Z,19.79
2022-09-04T08:50:34.231Z,19.88
2022-09-04T08:53:29.594Z,19.99
2022-09-04T08:56:13.581Z,20.07
2022-09-04T08:59:23.252Z,20.13
2022-09-04T09:02:15.514Z,20.20
2022-09-04T09:05:23.974Z,20.29
2022-09-04T09:08:31.546Z,20.39
2022-09-04T09:11:27.352Z,20.50
2022-09-04T09:14:30.876Z,20.58
2022-09-04T09:17:11.607Z,20.67
2022-09-04T09:19:44.502Z,20.75
2022-09-04T09:22:29.021Z,20.83
2022-09-04T09:25:15.717Z,20.90
2022-09-04T09:28:25.291Z,20.97
2022-09-04T09:31:36.780Z,21.04
2022-09-04T09:34:59.553Z,21.08
2022-09-04T09:37:52.021Z,21.12
2022-09-04T09:41:00.345Z,21.17
2022-09-04T09:44:01.841Z,21.27
2022-09-04T09:46:55.628Z,21.37
2022-09-04T09:49:55.169Z,21.43
2022-09-04T09:52:47.150Z,21.47
2022-09-04T09:55:45.911Z,21.54
2022-09-04T09:58:42.160Z,21.64
2022-09-04T10:01:30.442Z,21.75
2022-09-04T10:04:18.552Z,21.83
2022-09-04T10:07:23.733Z,21.92
2022-09-04T10:10:22.760Z,22.04
2022-09-04T10:13:20.805Z,22.16
2022-09-04T10:16:09.109Z,22.32
2022-09-04T10:19:08.329Z,22.39
2022-09-04T10:22:17.044Z,22.41
2022-09-04T10:25:27.981Z,22.47
2022-09-04T10:28:43.815Z,22.54
2022-09-04T10:31:27.619Z,22.60
2022-09-04T10:34:08.566Z,22.62
2022-09-04T10:36:46.379Z,22.65
2022-09-04T10:39:23.441Z,22.75
2022-09-04T10:42:07.127Z,22.83
2022-09-04T10:44:44.052Z,22.91
2022-09-04T10:47:23.997Z,22.99
2022-09-04T10:50:16.576Z,23.03
2022-09-04T10:53:31.512Z,23.08
2022-09-04T10:56:22.316Z,23.23
2022-09-04T10:59:11.061Z,23.34
2022-09-04T11:02:02.385Z,23.46
2022-09-04T11:05:08.276Z,23.57
2022-09-04T11:08:02.677Z,23.65
2022-09-04T11:10:46.412Z,23.76
2022-09-04T11:13:56.473Z,23.92
2022-09-04T11:17:04.720Z,24.00
2022-09-04T11:20:12.890Z,24.00
2022-09-04T11:23:18.395Z,23.96
2022-09-04T11:26:18.764Z,23.92
2022-09-04T11:29:12.934Z,23.98
2022-09-04T11:31:58.703Z,24.08
2022-09-04T11:35:11.704Z,24.17
2022-09-04T11:37:58.932Z,24.23
2022-09-04T11:41:05.562Z,24.30
2022-09-04T11:44:00.746Z,24.36
2022-09-04T11:46:47.639Z,24.50
2022-09-04T11:49:42.531Z,24.64
2022-09-04T11:52:24.817Z,24.72
2022-09-04T11:55:18.819Z,24.68
2022-09-04T11:57:59.823Z,24.72
2022-09-04T12:00:35.454Z,24.84
2022-09-04T12:03:37.763Z,25.01
2022-09-04T12:06:19.510Z,25.06
2022-09-04T12:09:22.136Z,25.00
2022-09-04T12:12:27.333Z,25.00
2022-09-04T12:15:32.406Z,25.12
2022-09-04T12:18:26.169Z,25.22
2022-09-04T12:21:07.731Z,25.21
2022-09-04T12:23:58.818Z,25.21
2022-09-04T12:27:13.541Z,25.23
2022-09-04T12:30:05.669Z,25.32
2022-09-04T12:33:14.214Z,25.32
2022-09-04T12:36:23.873Z,25.28
2022-09-04T12:39:12.953Z,25.38
2022-09-04T12:41:50.387Z,25.37
2022-09-04T12:44:27.076Z,25.36
2022-09-04T12:47:04.324Z,25.37
2022-09-04T12:49:49.150Z,25.44
2022-09-04T12:52:32.044Z,25.47
2022-09-04T12:55:10.228Z,25.54
2022-09-04T12:57:48.075Z,25.57
2022-09-04T13:00:17.286Z,25.63
2022-09-04T13:03:00.822Z,25.68
2022-09-04T13:05:52.700Z,25.84
2022-09-04T13:08:35.591Z,25.98
2022-09-04T13:11:12.818Z,26.04
2022-09-04T13:13:51.095Z,26.04
2022-09-04T13:16:26.227Z,26.02
2022-09-04T13:19:10.246Z,26.00
2022-09-04T13:21:53.420Z,26.07
2022-09-04T13:24:33.273Z,26.01
2022-09-04T13:27:14.642Z,25.99
2022-09-04T13:29:54.231Z,26.05
2022-09-04T13:32:37.775Z,26.19
2022-09-04T13:35:18.802Z,26.26
2022-09-04T13:38:02.056Z,26.30
2022-09-04T13:40:56.946Z,26.39
2022-09-04T13:43:48.127Z,26.52
2022-09-04T13:46:20.838Z,26.56
2022-09-04T13:48:51.798Z,26.70
2022-09-04T13:51:23.273Z,26.73
2022-09-04T13:54:03.981Z,26.70
2022-09-04T13:56:38.628Z,26.77
2022-09-04T13:59:08.225Z,26.79
2022-09-04T14:01:37.396Z,26.83
2022-09-04T14:04:10.134Z,26.80
2022-09-04T14:06:37.452Z,26.74
2022-09-04T14:09:06.336Z,26.66
2022-09-04T14:11:52.659Z,26.67
2022-09-04T14:14:53.239Z,26.54
2022-09-04T14:17:25.384Z,26.48
2022-09-04T14:19:59.150Z,26.44
2022-09-04T14:22:40.907Z,26.28
2022-09-04T14:25:16.287Z,26.16
2022-09-04T14:27:55.026Z,26.09
2022-09-04T14:30:23.423Z,26.20
2022-09-04T14:33:06.164Z,26.32
2022-09-04T14:35:40.440Z,26.39
2022-09-04T14:38:33.049Z,26.43
2022-09-04T14:41:11.918Z,26.40
2022-09-04T14:43:49.717Z,26.38
2022-09-04T14:46:25.255Z,26.38
2022-09-04T14:49:02.712Z,26.40
2022-09-04T14:51:35.711Z,26.43
2022-09-04T14:54:03.773Z,26.42
2022-09-04T14:56:39.464Z,26.39
2022-09-04T14:59:13.947Z,26.35
2022-09-04T15:02:01.519Z,26.30
2022-09-04T15:04:34.189Z,26.24
2022-09-04T15:07:17.756Z,26.20
2022-09-04T15:09:48.300Z,26.13
2022-09-04T15:12:24.545Z,25.98
2022-09-04T15:15:03.635Z,25.90
2022-09-04T15:17:31.166Z,25.88
2022-09-04T15:20:02.706Z,25.82
2022-09-04T15:22:36.136Z,25.80
2022-09-04T15:25:08.906Z,25.78
2022-09-04T15:27:45.968Z,25.75
2022-09-04T15:30:21.403Z,25.72
2022-09-04T15:32:49.513Z,25.67
2022-09-04T15:35:23.139Z,25.61
2022-09-04T15:38:03.057Z,25.56
2022-09-04T15:40:33.936Z,25.52
2022-09-04T15:43:08.930Z,25.49
2022-09-04T15:45:44.927Z,25.41
2022-09-04T15:48:25.466Z,25.39
2022-09-04T15:51:11.990Z,25.39
2022-09-04T15:53:43.567Z,25.38
2022-09-04T15:56:30.803Z,25.35
2022-09-04T15:59:04.421Z,25.34
2022-09-04T16:01:40.461Z,25.31
2022-09-04T16:04:12.939Z,25.24
2022-09-04T16:06:46.243Z,25.17
2022-09-04T16:09:20.410Z,25.12
2022-09-04T16:11:54.241Z,25.02
2022-09-04T16:14:24.477Z,24.97
2022-09-04T16:16:58.079Z,24.95
2022-09-04T16:19:32.209Z,24.96
2022-09-04T16:22:09.977Z,24.96
2022-09-04T16:24:43.387Z,24.96
2022-09-04T16:27:17.466Z,24.92
2022-09-04T16:29:48.297Z,24.84
2022-09-04T16:32:21.646Z,24.80
2022-09-04T16:34:49.881Z,24.76
2022-09-04T16:37:22.445Z,24.77
2022-09-04T16:40:01.148Z,24.74
2022-09-04T16:42:37.273Z,24.72
2022-09-04T16:45:11.696Z,24.68
2022-09-04T16:47:46.188Z,24.64
2022-09-04T16:50:19.955Z,24.57
2022-09-04T16:53:12.861Z,24.49
2022-09-04T16:55:49.997Z,24.41
2022-09-04T16:58:35.204Z,24.32
2022-09-04T17:01:14.160Z,24.24
2022-09-04T17:03:51.983Z,24.18
2022-09-04T17:06:35.241Z,24.12
2022-09-04T17:09:08.817Z,24.07
2022-09-04T17:11:55.536Z,24.02
2022-09-04T17:14:30.866Z,23.93
2022-09-04T17:17:08.923Z,23.85
2022-09-04T17:20:06.580Z,23.77
2022-09-04T17:27:21.970Z,23.72
2022-09-04T17:29:16.515Z,23.63
2022-09-04T17:29:17.727Z,23.57
2022-09-04T17:31:28.930Z,23.47
2022-09-04T17:39:44.355Z,23.21
2022-09-04T17:40:36.878Z,23.37
2022-09-04T17:40:44.603Z,23.28
2022-09-04T17:42:40.148Z,23.10
2022-09-04T17:45:16.549Z,23.02
2022-09-04T17:47:43.881Z,22.94
2022-09-04T17:50:14.294Z,22.85
2022-09-04T17:52:58.653Z,22.76
2022-09-04T17:55:27.645Z,22.67
2022-09-04T17:58:02.396Z,22.58
2022-09-04T18:00:34.115Z,22.52
2022-09-04T18:03:06.731Z,22.44
2022-09-04T18:05:42.051Z,22.37
2022-09-04T18:08:27.922Z,22.28
2022-09-04T18:10:59.225Z,22.18
2022-09-04T18:13:37.936Z,22.09
2022-09-04T18:16:14.582Z,22.00
2022-09-04T18:18:46.274Z,21.91
2022-09-04T18:21:19.386Z,21.82
2022-09-04T18:23:58.062Z,21.76
2022-09-04T18:26:34.033Z,21.68
2022-09-04T18:32:33.154Z,21.60
2022-09-04T18:37:07.259Z,21.49
2022-09-04T18:37:23.394Z,21.43
2022-09-04T18:38:16.361Z,21.37
2022-09-04T18:42:03.890Z,21.30
2022-09-04T18:50:24.568Z,21.22
2022-09-04T18:50:45.116Z,21.13
2022-09-04T18:50:45.240Z,21.06
2022-09-04T18:52:14.329Z,20.98
2022-09-04T18:54:47.898Z,20.91
2022-09-04T18:57:24.115Z,20.84
2022-09-04T19:00:08.042Z,20.80
2022-09-04T19:02:47.470Z,20.72
2022-09-04T19:05:20.944Z,20.65
2022-09-04T19:07:52.911Z,20.60
2022-09-04T19:10:24.862Z,20.52
2022-09-04T19:13:00.323Z,20.47
2022-09-04T19:15:47.016Z,20.41
2022-09-04T19:18:21.590Z,20.36
2022-09-04T19:20:52.210Z,20.29
2022-09-04T19:23:28.184Z,20.25
2022-09-04T19:26:00.629Z,20.21
2022-09-04T19:28:42.509Z,20.17
2022-09-04T19:31:27.552Z,20.13
2022-09-04T19:34:02.114Z,20.09
2022-09-04T19:36:37.215Z,20.04
2022-09-04T19:44:21.544Z,20.01
2022-09-04T19:46:04.809Z,19.96
2022-09-04T19:46:13.205Z,19.91
2022-09-04T19:48:01.527Z,19.86
2022-09-04T19:53:24.585Z,19.81
2022-09-04T19:53:40.549Z,19.79
2022-09-04T19:56:13.015Z,19.76
2022-09-04T19:58:42.667Z,19.73
2022-09-04T20:01:16.915Z,19.70
2022-09-04T20:03:48.658Z,19.68
2022-09-04T20:06:23.178Z,19.66
2022-09-04T20:09:02.711Z,19.64
2022-09-04T20:11:35.640Z,19.59
2022-09-04T20:14:13.616Z,19.58
2022-09-04T20:16:53.387Z,19.53
2022-09-04T20:19:28.411Z,19.50
2022-09-04T20:22:00.662Z,19.48
2022-09-04T20:24:34.696Z,19.43
2022-09-04T20:27:07.701Z,19.41
2022-09-04T20:29:40.474Z,19.37
2022-09-04T20:32:18.099Z,19.31
2022-09-04T20:34:49.453Z,19.27
2022-09-04T20:37:32.403Z,19.22
2022-09-04T20:40:08.454Z,19.18
2022-09-04T20:42:42.195Z,19.14
2022-09-04T20:50:06.857Z,19.10
2022-09-04T20:52:55.062Z,19.07
2022-09-04T20:52:55.259Z,19.04
2022-09-04T20:54:28.599Z,18.99
2022-09-04T21:01:12.570Z,18.97
2022-09-04T21:03:07.982Z,18.93
2022-09-04T21:03:09.147Z,18.88
2022-09-04T21:06:01.308Z,18.84
2022-09-04T21:08:43.623Z,18.80
2022-09-04T21:11:39.301Z,18.76
2022-09-04T21:14:06.029Z,18.72
2022-09-04T21:16:41.121Z,18.70
2022-09-04T21:19:33.048Z,18.67
2022-09-04T21:22:32.343Z,18.64
2022-09-04T21:25:18.421Z,18.62
2022-09-04T21:28:21.525Z,18.57
2022-09-04T21:31:13.088Z,18.53
2022-09-04T21:33:50.824Z,18.50
2022-09-04T21:36:27.486Z,18.49
2022-09-04T21:39:30.833Z,18.45
2022-09-04T21:42:17.412Z,18.42
2022-09-04T21:45:04.923Z,18.37
2022-09-04T21:47:47.969Z,18.33
2022-09-04T21:50:27.921Z,18.29
2022-09-04T21:53:21.716Z,18.27
2022-09-04T22:00:54.838Z,18.24
2022-09-04T22:02:38.281Z,18.20
2022-09-04T22:02:40.624Z,18.17
2022-09-04T22:05:04.409Z,18.11
2022-09-04T22:11:56.879Z,18.07
2022-09-04T22:13:42.611Z,18.02
2022-09-04T22:13:54.018Z,17.96
2022-09-04T22:16:42.412Z,17.90
2022-09-04T22:19:31.381Z,17.85
2022-09-04T22:22:09.799Z,17.81
2022-09-04T22:25:05.820Z,17.77
2022-09-04T22:28:09.693Z,17.73
2022-09-04T22:30:56.248Z,17.69
2022-09-04T22:34:15.606Z,17.67
2022-09-04T22:37:06.728Z,17.61
2022-09-04T22:39:49.950Z,17.56
2022-09-04T22:42:41.743Z,17.54
2022-09-04T22:45:49.120Z,17.48
2022-09-04T22:48:47.931Z,17.45
2022-09-04T22:51:54.940Z,17.38
2022-09-04T22:54:34.404Z,17.38
2022-09-04T22:57:06.152Z,17.36
2022-09-04T22:59:52.688Z,17.35
2022-09-04T23:03:08.307Z,17.34
2022-09-04T23:06:54.427Z,17.32
2022-09-04T23:13:54.383Z,17.32
2022-09-04T23:13:58.573Z,17.34
2022-09-04T23:15:48.685Z,17.33
2022-09-04T23:21:10.538Z,17.34
2022-09-04T23:26:36.493Z,17.34
2022-09-04T23:26:48.449Z,17.33
2022-09-04T23:28:26.985Z,17.35
2022-09-04T23:31:09.108Z,17.34
2022-09-04T23:34:03.709Z,17.34
2022-09-04T23:37:07.315Z,17.35
2022-09-04T23:40:03.359Z,17.34
2022-09-04T23:43:10.039Z,17.34
2022-09-04T23:46:01.102Z,17.32
2022-09-04T23:48:44.235Z,17.32
2022-09-04T23:51:24.273Z,17.33
2022-09-04T23:54:01.294Z,17.32
2022-09-04T23:56:54.455Z,17.32
2022-09-04T23:59:29.863Z,17.33
